Flight Track Log - Related Links

Times and Time Zones

All times are in EDT time to prevent confusion due to time zone crossing. See the CTL18 flight status page for this flight to view local times or setup timezone preferences in your user account.

Time Position Orientation Groundspeed Altitude Reporting Facility
EDT Latitude Longitude Course Direction KTS MPH feet Rate Location/Type
Tue 07:54:00 PM 43.3619 -84.0057 160° South  Level Estimated
Tue 07:55:00 PM 43.3366 -83.9838 148° Southeast  Level FlightAware Approximate
Tue 07:56:00 PM 43.3080 -83.9718 160° South  Level Estimated
Tue 07:57:00 PM 43.2807 -83.9553 156° South  Level FlightAware Approximate
Tue 07:58:00 PM 43.2533 -83.9388 156° South  Level FlightAware Approximate
Tue 07:59:00 PM 43.2247 -83.9271 163° South  Level Estimated
Tue 08:00:00 PM 43.1965 -83.9134 161° South  Level FlightAware Approximate
Tue 08:01:00 PM 43.1683 -83.8997 161° South  Level FlightAware Approximate
Tue 08:01:45 PM 42.9925 -83.8022 160° South 161 185 5,000  Level Cleveland Center
Tue 08:02:00 PM 43.1401 -83.8861 161° South  Level FlightAware Approximate
Tue 08:02:22 PM 42.9658 -83.7922 165° South 159 183 5,000  Level Cleveland Center
Tue 08:03:00 PM 43.1115 -83.8746 160° South  Level Estimated
Tue 08:03:23 PM 42.9247 -83.7731 161° South 160 184 5,000  Level Cleveland Center
Tue 08:04:00 PM 43.0835 -83.8603 160° South  Level FlightAware Approximate
Tue 08:04:24 PM 42.8833 -83.7539 161° South 159 183 5,100  Level Cleveland Center
Tue 08:05:00 PM 43.0555 -83.8461 160° South  Level FlightAware Approximate
Tue 08:05:25 PM 42.8400 -83.7433 170° South 161 185 5,000  Level Cleveland Center
Tue 08:06:00 PM 43.0275 -83.8318 160° South  Level FlightAware Approximate
Tue 08:06:32 PM 42.7903 -83.7294 168° South 158 182 5,000  Level Cleveland Center
Tue 08:07:00 PM 42.9995 -83.8176 160° South  Level FlightAware Approximate
Tue 08:07:33 PM 42.7469 -83.7158 167° South 156 180 5,000  Level Cleveland Center
Tue 08:08:34 PM 42.7036 -83.6997 165° South 156 180 5,000 49 Level Cleveland Center
Tue 08:09:35 PM 42.6644 -83.6781 158° South 156 180 5,100  Climbing Cleveland Center
Tue 08:10:36 PM 42.6214 -83.6561 159° South 156 180 5,000 -155 Descending Cleveland Center
Tue 08:11:31 PM 42.5800 -83.6400 164° South 165 190 4,800 -259 Descending Cleveland Center
Tue 08:12:32 PM 42.5369 -83.6181 159° South 173 199 4,500 -393 Descending Cleveland Center
Tue 08:13:33 PM 42.4892 -83.6044 168° South 176 203 4,000 -738 Descending Cleveland Center
Tue 08:14:34 PM 42.4397 -83.5881 166° South 189 217 3,000 -639 Descending Cleveland Center
Tue 08:15:35 PM 42.3942 -83.5747 168° South 169 194 2,700 -293 Descending Cleveland Center
Tue 08:16:37 PM 42.3467 -83.5528 161° South 164 189 2,400 -295 Descending Cleveland Center
Tue 08:17:37 PM 42.3033 -83.5367 165° South 161 185 2,100 -446 Descending Cleveland Center
Tue 08:18:38 PM 42.2667 -83.5125 154° Southeast 140 161 1,500 -590 Descending Cleveland Center
Tue 08:20:00 PM 42.2333 -83.5167 160° South  Level FlightAware Approximate
Tue 08:27:00 PM 42.2393 -83.5310 160° South  Level Estimated
Tue 08:28:00 PM 42.2393 -83.5310 160° South  Level Estimated

Login

Don't have an account? Register now (free) for customized features, flight alerts, and more!